JST859 YPPH-YPAD
Flight info
| Callsign | JST859 |
|---|---|
| Flight time | 2h 47m |
| Altitude | 35000 |
| Route | HECTO Y135 DADRU Y39 ATNAR |
| Aircraft | A320/M-SDE3FGHIRWY/LB1 |
Departure
| Time | 2026-05-07 07:46 |
|---|---|
| Airport | Perth International Airport (YPPH) |
Arrival
| Time | 2026-05-07 10:33 |
|---|---|
| Airport | Adelaide International Airport (YPAD) |
| Time | Latitude | Longitude | Altitude | Speed | Heading |
|---|---|---|---|---|---|
| 2026-05-07 07:09 | -31.94420 | 115.97059 | 68 ft | 0 kts | 114° |
| 2026-05-07 07:35 | -31.94418 | 115.97052 | 61 ft | 3 kts | 115° |
| 2026-05-07 07:35 | -31.94407 | 115.97028 | 59 ft | 3 kts | 120° |
| 2026-05-07 07:35 | -31.94396 | 115.97004 | 58 ft | 3 kts | 123° |
| 2026-05-07 07:35 | -31.94383 | 115.96982 | 59 ft | 3 kts | 121° |
| 2026-05-07 07:36 | -31.94373 | 115.96958 | 68 ft | 2 kts | 105° |
| 2026-05-07 07:36 | -31.94372 | 115.96956 | 68 ft | 0 kts | 104° |
| 2026-05-07 07:39 | -31.94373 | 115.96960 | 68 ft | 2 kts | 104° |
| 2026-05-07 07:40 | -31.94375 | 115.96970 | 68 ft | 3 kts | 101° |
| 2026-05-07 07:40 | -31.94365 | 115.97001 | 67 ft | 6 kts | 48° |
| 2026-05-07 07:40 | -31.94319 | 115.97019 | 66 ft | 8 kts | 13° |
| 2026-05-07 07:40 | -31.94258 | 115.97036 | 63 ft | 10 kts | 12° |
| 2026-05-07 07:41 | -31.94216 | 115.96989 | 59 ft | 9 kts | 284° |
| 2026-05-07 07:41 | -31.94199 | 115.96907 | 60 ft | 11 kts | 284° |
| 2026-05-07 07:41 | -31.94188 | 115.96830 | 62 ft | 9 kts | 255° |
| 2026-05-07 07:41 | -31.94241 | 115.96794 | 63 ft | 10 kts | 195° |
| 2026-05-07 07:42 | -31.94313 | 115.96774 | 59 ft | 11 kts | 193° |
| 2026-05-07 07:42 | -31.94394 | 115.96750 | 65 ft | 13 kts | 194° |
| 2026-05-07 07:42 | -31.94483 | 115.96724 | 63 ft | 10 kts | 194° |
| 2026-05-07 07:42 | -31.94511 | 115.96679 | 64 ft | 8 kts | 269° |
| 2026-05-07 07:43 | -31.94497 | 115.96612 | 65 ft | 9 kts | 284° |
| 2026-05-07 07:43 | -31.94480 | 115.96532 | 66 ft | 11 kts | 283° |
| 2026-05-07 07:43 | -31.94461 | 115.96443 | 60 ft | 11 kts | 284° |
| 2026-05-07 07:43 | -31.94442 | 115.96351 | 67 ft | 12 kts | 284° |
| 2026-05-07 07:44 | -31.94419 | 115.96246 | 68 ft | 14 kts | 284° |
| 2026-05-07 07:44 | -31.94387 | 115.96142 | 64 ft | 10 kts | 314° |
| 2026-05-07 07:44 | -31.94322 | 115.96095 | 60 ft | 12 kts | 329° |
| 2026-05-07 07:44 | -31.94248 | 115.96043 | 58 ft | 13 kts | 329° |
| 2026-05-07 07:45 | -31.94165 | 115.95984 | 64 ft | 15 kts | 329° |
| 2026-05-07 07:45 | -31.94099 | 115.95942 | 61 ft | 7 kts | 353° |
| 2026-05-07 07:45 | -31.94075 | 115.95966 | 64 ft | 4 kts | 59° |
| 2026-05-07 07:45 | -31.93995 | 115.96122 | 65 ft | 56 kts | 59° |
| 2026-05-07 07:46 | -31.93674 | 115.96747 | 66 ft | 119 kts | 59° |
| 2026-05-07 07:46 | -31.93179 | 115.97728 | 311 ft | 147 kts | 60° |
| 2026-05-07 07:46 | -31.92648 | 115.98766 | 966 ft | 149 kts | 61° |
| 2026-05-07 07:46 | -31.92120 | 115.99809 | 1694 ft | 148 kts | 63° |
| 2026-05-07 07:47 | -31.91595 | 116.00823 | 2227 ft | 148 kts | 63° |
| 2026-05-07 07:47 | -31.91037 | 116.01928 | 2494 ft | 166 kts | 63° |
| 2026-05-07 07:47 | -31.90423 | 116.03156 | 2850 ft | 180 kts | 62° |
| 2026-05-07 07:47 | -31.89743 | 116.04483 | 3113 ft | 198 kts | 60° |
| 2026-05-07 07:48 | -31.88988 | 116.05930 | 3390 ft | 219 kts | 60° |
| 2026-05-07 07:48 | -31.88160 | 116.07529 | 3634 ft | 243 kts | 60° |
| 2026-05-07 07:48 | -31.87269 | 116.09258 | 4368 ft | 249 kts | 61° |
| 2026-05-07 07:48 | -31.86378 | 116.11016 | 5233 ft | 251 kts | 60° |
| 2026-05-07 07:49 | -31.85592 | 116.12856 | 6062 ft | 254 kts | 70° |
| 2026-05-07 07:49 | -31.85150 | 116.14881 | 6860 ft | 259 kts | 76° |
| 2026-05-07 07:49 | -31.84750 | 116.16962 | 7619 ft | 263 kts | 76° |
| 2026-05-07 07:49 | -31.84343 | 116.19069 | 8395 ft | 266 kts | 76° |
| 2026-05-07 07:50 | -31.83930 | 116.21208 | 9114 ft | 271 kts | 77° |
| 2026-05-07 07:50 | -31.83510 | 116.23382 | 9867 ft | 274 kts | 76° |
| 2026-05-07 07:50 | -31.83078 | 116.25607 | 10402 ft | 289 kts | 76° |
| 2026-05-07 07:50 | -31.82610 | 116.27997 | 10595 ft | 311 kts | 77° |
| 2026-05-07 07:51 | -31.82106 | 116.30573 | 10763 ft | 334 kts | 77° |
| 2026-05-07 07:51 | -31.81577 | 116.33286 | 11177 ft | 346 kts | 77° |
| 2026-05-07 07:51 | -31.81035 | 116.36067 | 11814 ft | 351 kts | 77° |
| 2026-05-07 07:51 | -31.80488 | 116.38876 | 12548 ft | 354 kts | 77° |
| 2026-05-07 07:52 | -31.79943 | 116.41671 | 13238 ft | 357 kts | 77° |
| 2026-05-07 07:52 | -31.79382 | 116.44533 | 13977 ft | 360 kts | 76° |
| 2026-05-07 07:52 | -31.78815 | 116.47414 | 14610 ft | 364 kts | 76° |
| 2026-05-07 07:52 | -31.78241 | 116.50326 | 15244 ft | 367 kts | 76° |
| 2026-05-07 07:53 | -31.77664 | 116.53261 | 15839 ft | 370 kts | 76° |
| 2026-05-07 07:53 | -31.77081 | 116.56220 | 16426 ft | 373 kts | 76° |
| 2026-05-07 07:53 | -31.76491 | 116.59199 | 17004 ft | 376 kts | 76° |
| 2026-05-07 07:53 | -31.75896 | 116.62212 | 17571 ft | 380 kts | 76° |
| 2026-05-07 07:54 | -31.75299 | 116.65246 | 18137 ft | 383 kts | 76° |
| 2026-05-07 07:54 | -31.74692 | 116.68314 | 18717 ft | 386 kts | 76° |
| 2026-05-07 07:54 | -31.74079 | 116.71396 | 19225 ft | 389 kts | 76° |
| 2026-05-07 07:54 | -31.73459 | 116.74507 | 19732 ft | 393 kts | 76° |
| 2026-05-07 07:55 | -31.72836 | 116.77645 | 20249 ft | 396 kts | 76° |
| 2026-05-07 07:55 | -31.72207 | 116.80812 | 20779 ft | 400 kts | 76° |
| 2026-05-07 07:55 | -31.71573 | 116.83998 | 21301 ft | 403 kts | 76° |
| 2026-05-07 07:55 | -31.70939 | 116.87176 | 21800 ft | 406 kts | 76° |
| 2026-05-07 07:56 | -31.70291 | 116.90414 | 22313 ft | 409 kts | 76° |
| 2026-05-07 07:56 | -31.69635 | 116.93685 | 22792 ft | 413 kts | 76° |
| 2026-05-07 07:56 | -31.68975 | 116.96973 | 23296 ft | 416 kts | 76° |
| 2026-05-07 07:56 | -31.68308 | 117.00292 | 23767 ft | 419 kts | 76° |
| 2026-05-07 07:57 | -31.67656 | 117.03637 | 24204 ft | 422 kts | 79° |
| 2026-05-07 07:57 | -31.67362 | 117.07086 | 24587 ft | 426 kts | 89° |
| 2026-05-07 07:57 | -31.67583 | 117.10561 | 25022 ft | 429 kts | 99° |
| 2026-05-07 07:57 | -31.68316 | 117.13970 | 25417 ft | 433 kts | 108° |
| 2026-05-07 07:58 | -31.69365 | 117.17294 | 25807 ft | 436 kts | 109° |
| 2026-05-07 07:58 | -31.70426 | 117.20645 | 26218 ft | 438 kts | 109° |
| 2026-05-07 07:58 | -31.71482 | 117.24002 | 26701 ft | 438 kts | 109° |
| 2026-05-07 07:58 | -31.72530 | 117.27338 | 27311 ft | 434 kts | 109° |
| 2026-05-07 07:59 | -31.73571 | 117.30654 | 27874 ft | 433 kts | 110° |
| 2026-05-07 07:59 | -31.74615 | 117.33975 | 28358 ft | 432 kts | 110° |
| 2026-05-07 07:59 | -31.75655 | 117.37287 | 28840 ft | 433 kts | 110° |
| 2026-05-07 07:59 | -31.76696 | 117.40612 | 29333 ft | 433 kts | 110° |
| 2026-05-07 08:00 | -31.77731 | 117.43924 | 29922 ft | 431 kts | 110° |
| 2026-05-07 08:00 | -31.78762 | 117.47229 | 30453 ft | 429 kts | 110° |
| 2026-05-07 08:00 | -31.79787 | 117.50516 | 30946 ft | 427 kts | 110° |
| 2026-05-07 08:00 | -31.80807 | 117.53795 | 31348 ft | 428 kts | 110° |
| 2026-05-07 08:01 | -31.81832 | 117.57084 | 31756 ft | 428 kts | 110° |
| 2026-05-07 08:01 | -31.82856 | 117.60372 | 32119 ft | 429 kts | 110° |
| 2026-05-07 08:01 | -31.83883 | 117.63668 | 32530 ft | 429 kts | 111° |
| 2026-05-07 08:01 | -31.84908 | 117.66959 | 32990 ft | 428 kts | 110° |
| 2026-05-07 08:02 | -31.85926 | 117.70237 | 33445 ft | 426 kts | 111° |
| 2026-05-07 08:02 | -31.86941 | 117.73512 | 33872 ft | 425 kts | 111° |
| 2026-05-07 08:02 | -31.87955 | 117.76784 | 34248 ft | 426 kts | 111° |
| 2026-05-07 08:02 | -31.88970 | 117.80055 | 34618 ft | 426 kts | 111° |
| 2026-05-07 08:03 | -31.89982 | 117.83333 | 34912 ft | 427 kts | 111° |
| 2026-05-07 08:03 | -31.90996 | 117.86627 | 35217 ft | 428 kts | 110° |
| 2026-05-07 08:03 | -31.92013 | 117.89927 | 35406 ft | 430 kts | 112° |
| 2026-05-07 08:04 | -31.94090 | 117.96662 | 35428 ft | 444 kts | 111° |
| 2026-05-07 08:04 | -31.96208 | 118.03537 | 35435 ft | 448 kts | 111° |
| 2026-05-07 08:05 | -31.98314 | 118.10430 | 35437 ft | 447 kts | 111° |
| 2026-05-07 08:05 | -32.00416 | 118.17314 | 35434 ft | 446 kts | 110° |
| 2026-05-07 08:06 | -32.02506 | 118.24159 | 35435 ft | 447 kts | 110° |
| 2026-05-07 08:06 | -32.04608 | 118.31067 | 35436 ft | 447 kts | 110° |
| 2026-05-07 08:07 | -32.06704 | 118.37968 | 35448 ft | 447 kts | 112° |
| 2026-05-07 08:07 | -32.09446 | 118.44524 | 35446 ft | 446 kts | 119° |
| 2026-05-07 08:08 | -32.12370 | 118.50968 | 35452 ft | 445 kts | 120° |
| 2026-05-07 08:08 | -32.15290 | 118.57424 | 35456 ft | 446 kts | 119° |
| 2026-05-07 08:09 | -32.18197 | 118.63889 | 35453 ft | 446 kts | 119° |
| 2026-05-07 08:09 | -32.21104 | 118.70362 | 35458 ft | 447 kts | 120° |
| 2026-05-07 08:10 | -32.23985 | 118.76799 | 35467 ft | 446 kts | 119° |
| 2026-05-07 08:10 | -32.26893 | 118.83281 | 35471 ft | 446 kts | 120° |
| 2026-05-07 08:11 | -32.29798 | 118.89758 | 35474 ft | 446 kts | 120° |
| 2026-05-07 08:11 | -32.32688 | 118.96223 | 35492 ft | 445 kts | 119° |
| 2026-05-07 08:12 | -32.35571 | 119.02694 | 35483 ft | 444 kts | 119° |
| 2026-05-07 08:12 | -32.38456 | 119.09170 | 35479 ft | 445 kts | 118° |
| 2026-05-07 08:13 | -32.41336 | 119.15650 | 35485 ft | 445 kts | 118° |
| 2026-05-07 08:13 | -32.44203 | 119.22139 | 35479 ft | 445 kts | 118° |
| 2026-05-07 08:14 | -32.47059 | 119.28592 | 35489 ft | 445 kts | 118° |
| 2026-05-07 08:14 | -32.49937 | 119.35093 | 35492 ft | 446 kts | 119° |
| 2026-05-07 08:15 | -32.52802 | 119.41593 | 35494 ft | 445 kts | 119° |
| 2026-05-07 08:15 | -32.55672 | 119.48117 | 35491 ft | 445 kts | 118° |
| 2026-05-07 08:16 | -32.58535 | 119.54629 | 35500 ft | 445 kts | 119° |
| 2026-05-07 08:16 | -32.61396 | 119.61130 | 35500 ft | 444 kts | 119° |
| 2026-05-07 08:17 | -32.64241 | 119.67639 | 35496 ft | 445 kts | 118° |
| 2026-05-07 08:17 | -32.67065 | 119.74117 | 35497 ft | 445 kts | 118° |
| 2026-05-07 08:18 | -32.69911 | 119.80632 | 35502 ft | 445 kts | 118° |
| 2026-05-07 08:18 | -32.72761 | 119.87167 | 35505 ft | 445 kts | 118° |
| 2026-05-07 08:19 | -32.75606 | 119.93701 | 35512 ft | 445 kts | 118° |
| 2026-05-07 08:19 | -32.78440 | 120.00226 | 35514 ft | 444 kts | 118° |
| 2026-05-07 08:20 | -32.81270 | 120.06760 | 35520 ft | 444 kts | 118° |
| 2026-05-07 08:20 | -32.84083 | 120.13275 | 35524 ft | 443 kts | 118° |
| 2026-05-07 08:21 | -32.86881 | 120.19752 | 35533 ft | 443 kts | 118° |
| 2026-05-07 08:21 | -32.89689 | 120.26264 | 35523 ft | 442 kts | 118° |
| 2026-05-07 08:22 | -32.92493 | 120.32786 | 35521 ft | 442 kts | 118° |
| 2026-05-07 08:22 | -32.95289 | 120.39299 | 35517 ft | 442 kts | 118° |
| 2026-05-07 08:23 | -32.98090 | 120.45829 | 35522 ft | 443 kts | 118° |
| 2026-05-07 08:23 | -33.00555 | 120.52536 | 35515 ft | 444 kts | 107° |
| 2026-05-07 08:24 | -33.01743 | 120.59753 | 35527 ft | 444 kts | 102° |
| 2026-05-07 08:24 | -33.02835 | 120.66999 | 35529 ft | 444 kts | 101° |
| 2026-05-07 08:25 | -33.03925 | 120.74242 | 35513 ft | 445 kts | 101° |
| 2026-05-07 08:25 | -33.05011 | 120.81521 | 35496 ft | 447 kts | 101° |
| 2026-05-07 08:26 | -33.06628 | 120.92494 | 35498 ft | 449 kts | 101° |
| 2026-05-07 08:26 | -33.07709 | 120.99839 | 35508 ft | 450 kts | 101° |
| 2026-05-07 08:27 | -33.08610 | 121.05947 | 35509 ft | 450 kts | 101° |
| 2026-05-07 08:27 | -33.09688 | 121.13308 | 35521 ft | 450 kts | 101° |
| 2026-05-07 08:28 | -33.10757 | 121.20672 | 35523 ft | 451 kts | 101° |
| 2026-05-07 08:28 | -33.11821 | 121.28036 | 35536 ft | 451 kts | 101° |
| 2026-05-07 08:29 | -33.12887 | 121.35399 | 35537 ft | 450 kts | 101° |
| 2026-05-07 08:29 | -33.13950 | 121.42761 | 35531 ft | 450 kts | 101° |
| 2026-05-07 08:30 | -33.15004 | 121.50124 | 35532 ft | 450 kts | 101° |
| 2026-05-07 08:30 | -33.16048 | 121.57492 | 35531 ft | 450 kts | 101° |
| 2026-05-07 08:31 | -33.17077 | 121.64801 | 35533 ft | 449 kts | 101° |
| 2026-05-07 08:31 | -33.18118 | 121.72155 | 35537 ft | 449 kts | 101° |
| 2026-05-07 08:32 | -33.19160 | 121.79505 | 35547 ft | 449 kts | 101° |
| 2026-05-07 08:32 | -33.20215 | 121.86850 | 35545 ft | 448 kts | 102° |
| 2026-05-07 08:33 | -33.21466 | 121.94134 | 35543 ft | 448 kts | 103° |
| 2026-05-07 08:33 | -33.22803 | 122.01394 | 35543 ft | 447 kts | 103° |
| 2026-05-07 08:34 | -33.24103 | 122.08669 | 35547 ft | 447 kts | 103° |
| 2026-05-07 08:34 | -33.25363 | 122.15943 | 35546 ft | 447 kts | 103° |
| 2026-05-07 08:35 | -33.26614 | 122.23219 | 35542 ft | 447 kts | 103° |
| 2026-05-07 08:35 | -33.27862 | 122.30494 | 35544 ft | 447 kts | 103° |
| 2026-05-07 08:36 | -33.29107 | 122.37769 | 35548 ft | 447 kts | 103° |
| 2026-05-07 08:36 | -33.30345 | 122.45040 | 35547 ft | 447 kts | 103° |
| 2026-05-07 08:37 | -33.31580 | 122.52318 | 35550 ft | 446 kts | 103° |
| 2026-05-07 08:37 | -33.32811 | 122.59593 | 35546 ft | 446 kts | 103° |
| 2026-05-07 08:38 | -33.34034 | 122.66816 | 35557 ft | 446 kts | 103° |
| 2026-05-07 08:38 | -33.35260 | 122.74082 | 35555 ft | 445 kts | 103° |
| 2026-05-07 08:39 | -33.36476 | 122.81345 | 35554 ft | 445 kts | 103° |
| 2026-05-07 08:39 | -33.37692 | 122.88618 | 35557 ft | 446 kts | 103° |
| 2026-05-07 08:40 | -33.38903 | 122.95887 | 35561 ft | 445 kts | 103° |
| 2026-05-07 08:40 | -33.40107 | 123.03157 | 35558 ft | 445 kts | 103° |
| 2026-05-07 08:41 | -33.41305 | 123.10420 | 35555 ft | 445 kts | 102° |
| 2026-05-07 08:41 | -33.42498 | 123.17681 | 35566 ft | 444 kts | 103° |
| 2026-05-07 08:42 | -33.43691 | 123.24937 | 35570 ft | 444 kts | 102° |
| 2026-05-07 08:42 | -33.44873 | 123.32181 | 35567 ft | 443 kts | 102° |
| 2026-05-07 08:43 | -33.46055 | 123.39430 | 35568 ft | 443 kts | 102° |
| 2026-05-07 08:43 | -33.47227 | 123.46675 | 35569 ft | 443 kts | 102° |
| 2026-05-07 08:44 | -33.48389 | 123.53874 | 35566 ft | 443 kts | 102° |
| 2026-05-07 08:44 | -33.49565 | 123.61166 | 35564 ft | 443 kts | 102° |
| 2026-05-07 08:45 | -33.50721 | 123.68368 | 35571 ft | 443 kts | 102° |
| 2026-05-07 08:45 | -33.51877 | 123.75623 | 35573 ft | 443 kts | 102° |
| 2026-05-07 08:46 | -33.53032 | 123.82872 | 35573 ft | 443 kts | 102° |
| 2026-05-07 08:46 | -33.54181 | 123.90124 | 35575 ft | 443 kts | 102° |
| 2026-05-07 08:47 | -33.55318 | 123.97378 | 35582 ft | 443 kts | 102° |
| 2026-05-07 08:47 | -33.56452 | 124.04630 | 35578 ft | 442 kts | 102° |
| 2026-05-07 08:48 | -33.57581 | 124.11873 | 35581 ft | 442 kts | 102° |
| 2026-05-07 08:48 | -33.58719 | 124.19123 | 35581 ft | 442 kts | 102° |
| 2026-05-07 08:49 | -33.59835 | 124.26323 | 35586 ft | 442 kts | 102° |
| 2026-05-07 08:49 | -33.60955 | 124.33572 | 35584 ft | 442 kts | 102° |
| 2026-05-07 08:50 | -33.62072 | 124.40816 | 35585 ft | 442 kts | 102° |
| 2026-05-07 08:50 | -33.63178 | 124.48069 | 35586 ft | 442 kts | 102° |
| 2026-05-07 08:51 | -33.64283 | 124.55322 | 35586 ft | 442 kts | 102° |
| 2026-05-07 08:51 | -33.65387 | 124.62567 | 35586 ft | 441 kts | 102° |
| 2026-05-07 08:52 | -33.66493 | 124.69827 | 35589 ft | 442 kts | 102° |
| 2026-05-07 08:52 | -33.67583 | 124.77076 | 35595 ft | 441 kts | 102° |
| 2026-05-07 08:53 | -33.68670 | 124.84335 | 35590 ft | 441 kts | 102° |
| 2026-05-07 08:53 | -33.69753 | 124.91585 | 35588 ft | 441 kts | 102° |
| 2026-05-07 08:54 | -33.70832 | 124.98835 | 35586 ft | 441 kts | 102° |
| 2026-05-07 08:54 | -33.71903 | 125.06073 | 35591 ft | 441 kts | 102° |
| 2026-05-07 08:55 | -33.72973 | 125.13281 | 35594 ft | 441 kts | 102° |
| 2026-05-07 08:55 | -33.74030 | 125.20536 | 35591 ft | 441 kts | 101° |
| 2026-05-07 08:56 | -33.75090 | 125.27797 | 35595 ft | 441 kts | 101° |
| 2026-05-07 08:56 | -33.76147 | 125.35061 | 35591 ft | 441 kts | 101° |
| 2026-05-07 08:57 | -33.77208 | 125.42319 | 35584 ft | 441 kts | 101° |
| 2026-05-07 08:57 | -33.78256 | 125.49587 | 35589 ft | 441 kts | 101° |
| 2026-05-07 08:58 | -33.79291 | 125.56860 | 35595 ft | 442 kts | 101° |
| 2026-05-07 08:58 | -33.80340 | 125.64139 | 35593 ft | 442 kts | 101° |
| 2026-05-07 08:59 | -33.81383 | 125.71419 | 35594 ft | 442 kts | 101° |
| 2026-05-07 08:59 | -33.82420 | 125.78704 | 35597 ft | 442 kts | 101° |
| 2026-05-07 09:00 | -33.83445 | 125.85947 | 35590 ft | 442 kts | 101° |
| 2026-05-07 09:00 | -33.84466 | 125.93232 | 35592 ft | 442 kts | 101° |
| 2026-05-07 09:01 | -33.85489 | 126.00521 | 35591 ft | 442 kts | 101° |
| 2026-05-07 09:01 | -33.86509 | 126.07814 | 35595 ft | 442 kts | 101° |
| 2026-05-07 09:02 | -33.87517 | 126.15118 | 35596 ft | 442 kts | 101° |
| 2026-05-07 09:02 | -33.88526 | 126.22425 | 35603 ft | 442 kts | 101° |
| 2026-05-07 09:03 | -33.89526 | 126.29730 | 35600 ft | 442 kts | 101° |
| 2026-05-07 09:03 | -33.90532 | 126.37037 | 35598 ft | 442 kts | 101° |
| 2026-05-07 09:04 | -33.91531 | 126.44346 | 35601 ft | 443 kts | 101° |
| 2026-05-07 09:04 | -33.92525 | 126.51658 | 35607 ft | 443 kts | 101° |
| 2026-05-07 09:05 | -33.93514 | 126.58985 | 35603 ft | 443 kts | 100° |
| 2026-05-07 09:05 | -33.94500 | 126.66315 | 35604 ft | 443 kts | 101° |
| 2026-05-07 09:06 | -33.95479 | 126.73648 | 35605 ft | 444 kts | 100° |
| 2026-05-07 09:06 | -33.96457 | 126.80979 | 35610 ft | 443 kts | 100° |
| 2026-05-07 09:07 | -33.97426 | 126.88316 | 35604 ft | 444 kts | 100° |
| 2026-05-07 09:07 | -33.98396 | 126.95656 | 35606 ft | 444 kts | 100° |
| 2026-05-07 09:08 | -33.99358 | 127.02951 | 35610 ft | 444 kts | 100° |
| 2026-05-07 09:08 | -34.00319 | 127.10296 | 35607 ft | 444 kts | 100° |
| 2026-05-07 09:09 | -34.01273 | 127.17639 | 35599 ft | 444 kts | 100° |
| 2026-05-07 09:09 | -34.02222 | 127.24985 | 35600 ft | 444 kts | 100° |
| 2026-05-07 09:10 | -34.03169 | 127.32338 | 35600 ft | 444 kts | 100° |
| 2026-05-07 09:10 | -34.04113 | 127.39696 | 35598 ft | 444 kts | 100° |
| 2026-05-07 09:11 | -34.05048 | 127.47054 | 35601 ft | 444 kts | 100° |
| 2026-05-07 09:11 | -34.05976 | 127.54423 | 35601 ft | 444 kts | 100° |
| 2026-05-07 09:12 | -34.06916 | 127.61791 | 35596 ft | 445 kts | 100° |
| 2026-05-07 09:12 | -34.07846 | 127.69164 | 35598 ft | 445 kts | 99° |
| 2026-05-07 09:13 | -34.08774 | 127.76542 | 35608 ft | 445 kts | 99° |
| 2026-05-07 09:13 | -34.09690 | 127.83935 | 35610 ft | 445 kts | 99° |
| 2026-05-07 09:14 | -34.10592 | 127.91275 | 35605 ft | 445 kts | 99° |
| 2026-05-07 09:14 | -34.11503 | 127.98666 | 35609 ft | 445 kts | 99° |
| 2026-05-07 09:15 | -34.12412 | 128.06056 | 35609 ft | 445 kts | 99° |
| 2026-05-07 09:15 | -34.13318 | 128.13450 | 35611 ft | 445 kts | 99° |
| 2026-05-07 09:16 | -34.14217 | 128.20851 | 35609 ft | 445 kts | 99° |
| 2026-05-07 09:16 | -34.15109 | 128.28248 | 35606 ft | 445 kts | 99° |
| 2026-05-07 09:17 | -34.15998 | 128.35647 | 35605 ft | 445 kts | 99° |
| 2026-05-07 09:17 | -34.16883 | 128.43043 | 35605 ft | 445 kts | 99° |
| 2026-05-07 09:18 | -34.17762 | 128.50439 | 35597 ft | 445 kts | 99° |
| 2026-05-07 09:18 | -34.18628 | 128.57795 | 35596 ft | 445 kts | 99° |
| 2026-05-07 09:19 | -34.19503 | 128.65198 | 35604 ft | 445 kts | 99° |
| 2026-05-07 09:19 | -34.20371 | 128.72607 | 35599 ft | 445 kts | 99° |
| 2026-05-07 09:20 | -34.21089 | 128.78762 | 35598 ft | 445 kts | 99° |
| 2026-05-07 09:20 | -34.21947 | 128.86168 | 35594 ft | 445 kts | 98° |
| 2026-05-07 09:21 | -34.22800 | 128.93579 | 35594 ft | 445 kts | 98° |
| 2026-05-07 09:21 | -34.23652 | 129.00991 | 35597 ft | 445 kts | 99° |
| 2026-05-07 09:22 | -34.24498 | 129.08402 | 35597 ft | 445 kts | 98° |
| 2026-05-07 09:22 | -34.25333 | 129.15822 | 35599 ft | 445 kts | 98° |
| 2026-05-07 09:23 | -34.26166 | 129.23241 | 35600 ft | 445 kts | 98° |
| 2026-05-07 09:23 | -34.26998 | 129.30646 | 35588 ft | 445 kts | 98° |
| 2026-05-07 09:24 | -34.27830 | 129.38074 | 35595 ft | 445 kts | 98° |
| 2026-05-07 09:24 | -34.28650 | 129.45492 | 35590 ft | 446 kts | 98° |
| 2026-05-07 09:25 | -34.29469 | 129.52879 | 35593 ft | 446 kts | 98° |
| 2026-05-07 09:25 | -34.30283 | 129.60308 | 35602 ft | 446 kts | 98° |
| 2026-05-07 09:26 | -34.31086 | 129.67735 | 35598 ft | 445 kts | 98° |
| 2026-05-07 09:26 | -34.31893 | 129.75172 | 35599 ft | 445 kts | 98° |
| 2026-05-07 09:27 | -34.32688 | 129.82606 | 35597 ft | 446 kts | 98° |
| 2026-05-07 09:28 | -34.33883 | 129.93760 | 35600 ft | 446 kts | 97° |
| 2026-05-07 09:28 | -34.34674 | 130.01188 | 35600 ft | 445 kts | 98° |
| 2026-05-07 09:29 | -34.35453 | 130.08577 | 35598 ft | 445 kts | 98° |
| 2026-05-07 09:29 | -34.36230 | 130.16008 | 35588 ft | 445 kts | 98° |
| 2026-05-07 09:30 | -34.37012 | 130.23437 | 35594 ft | 445 kts | 97° |
| 2026-05-07 09:30 | -34.37789 | 130.30878 | 35594 ft | 445 kts | 97° |
| 2026-05-07 09:31 | -34.38551 | 130.38317 | 35597 ft | 445 kts | 97° |
| 2026-05-07 09:31 | -34.39310 | 130.45750 | 35598 ft | 445 kts | 97° |
| 2026-05-07 09:32 | -34.40072 | 130.53191 | 35579 ft | 445 kts | 98° |
| 2026-05-07 09:32 | -34.40826 | 130.60637 | 35592 ft | 445 kts | 97° |
| 2026-05-07 09:33 | -34.41574 | 130.68084 | 35591 ft | 446 kts | 97° |
| 2026-05-07 09:33 | -34.42321 | 130.75541 | 35592 ft | 446 kts | 97° |
| 2026-05-07 09:34 | -34.43057 | 130.82991 | 35595 ft | 445 kts | 97° |
| 2026-05-07 09:34 | -34.43792 | 130.90446 | 35587 ft | 446 kts | 97° |
| 2026-05-07 09:35 | -34.44522 | 130.97903 | 35590 ft | 446 kts | 97° |
| 2026-05-07 09:35 | -34.45258 | 131.05362 | 35590 ft | 446 kts | 97° |
| 2026-05-07 09:36 | -34.45979 | 131.12830 | 35581 ft | 446 kts | 97° |
| 2026-05-07 09:36 | -34.46687 | 131.20245 | 35590 ft | 446 kts | 97° |
| 2026-05-07 09:37 | -34.47400 | 131.27713 | 35580 ft | 446 kts | 97° |
| 2026-05-07 09:37 | -34.48118 | 131.35184 | 35581 ft | 446 kts | 97° |
| 2026-05-07 09:38 | -34.48825 | 131.42666 | 35579 ft | 447 kts | 97° |
| 2026-05-07 09:38 | -34.49516 | 131.50162 | 35576 ft | 447 kts | 97° |
| 2026-05-07 09:39 | -34.50210 | 131.57648 | 35583 ft | 447 kts | 97° |
| 2026-05-07 09:39 | -34.50906 | 131.65139 | 35572 ft | 447 kts | 97° |
| 2026-05-07 09:40 | -34.51594 | 131.72590 | 35567 ft | 448 kts | 97° |
| 2026-05-07 09:40 | -34.52279 | 131.80101 | 35566 ft | 448 kts | 97° |
| 2026-05-07 09:41 | -34.52967 | 131.87617 | 35562 ft | 449 kts | 97° |
| 2026-05-07 09:41 | -34.53644 | 131.95146 | 35564 ft | 449 kts | 97° |
| 2026-05-07 09:42 | -34.54324 | 132.02676 | 35569 ft | 449 kts | 96° |
| 2026-05-07 09:42 | -34.55000 | 132.10211 | 35563 ft | 450 kts | 96° |
| 2026-05-07 09:43 | -34.55663 | 132.17757 | 35564 ft | 449 kts | 97° |
| 2026-05-07 09:43 | -34.56323 | 132.25302 | 35568 ft | 450 kts | 96° |
| 2026-05-07 09:44 | -34.56976 | 132.32843 | 35568 ft | 450 kts | 96° |
| 2026-05-07 09:44 | -34.57624 | 132.40348 | 35566 ft | 450 kts | 96° |
| 2026-05-07 09:45 | -34.58269 | 132.47909 | 35559 ft | 451 kts | 97° |
| 2026-05-07 09:45 | -34.58913 | 132.55484 | 35557 ft | 452 kts | 97° |
| 2026-05-07 09:46 | -34.59552 | 132.63071 | 35554 ft | 452 kts | 97° |
| 2026-05-07 09:46 | -34.60196 | 132.70661 | 35555 ft | 452 kts | 97° |
| 2026-05-07 09:47 | -34.60834 | 132.78268 | 35556 ft | 453 kts | 96° |
| 2026-05-07 09:47 | -34.61465 | 132.85872 | 35555 ft | 453 kts | 97° |
| 2026-05-07 09:48 | -34.62086 | 132.93487 | 35558 ft | 453 kts | 97° |
| 2026-05-07 09:48 | -34.62700 | 133.01103 | 35559 ft | 453 kts | 96° |
| 2026-05-07 09:49 | -34.63318 | 133.08721 | 35557 ft | 453 kts | 97° |
| 2026-05-07 09:49 | -34.63922 | 133.16290 | 35552 ft | 453 kts | 97° |
| 2026-05-07 09:50 | -34.64525 | 133.23913 | 35547 ft | 454 kts | 96° |
| 2026-05-07 09:50 | -34.65127 | 133.31551 | 35547 ft | 454 kts | 97° |
| 2026-05-07 09:51 | -34.65728 | 133.39200 | 35544 ft | 455 kts | 96° |
| 2026-05-07 09:51 | -34.66321 | 133.46848 | 35548 ft | 455 kts | 97° |
| 2026-05-07 09:52 | -34.66908 | 133.54504 | 35542 ft | 456 kts | 97° |
| 2026-05-07 09:52 | -34.67494 | 133.62174 | 35545 ft | 456 kts | 96° |
| 2026-05-07 09:53 | -34.68077 | 133.69835 | 35552 ft | 456 kts | 96° |
| 2026-05-07 09:53 | -34.68653 | 133.77510 | 35547 ft | 456 kts | 96° |
| 2026-05-07 09:54 | -34.69228 | 133.85183 | 35544 ft | 456 kts | 96° |
| 2026-05-07 09:54 | -34.69788 | 133.92815 | 35537 ft | 457 kts | 96° |
| 2026-05-07 09:55 | -34.70344 | 134.00554 | 35537 ft | 457 kts | 96° |
| 2026-05-07 09:55 | -34.70908 | 134.08252 | 35540 ft | 457 kts | 96° |
| 2026-05-07 09:56 | -34.71453 | 134.15899 | 35540 ft | 458 kts | 95° |
| 2026-05-07 09:56 | -34.72002 | 134.23607 | 35536 ft | 458 kts | 96° |
| 2026-05-07 09:57 | -34.72546 | 134.31319 | 35534 ft | 458 kts | 96° |
| 2026-05-07 09:57 | -34.73087 | 134.39046 | 35533 ft | 459 kts | 95° |
| 2026-05-07 09:58 | -34.73623 | 134.46774 | 35533 ft | 459 kts | 96° |
| 2026-05-07 09:58 | -34.74153 | 134.54513 | 35532 ft | 459 kts | 96° |
| 2026-05-07 09:59 | -34.74676 | 134.62259 | 35532 ft | 460 kts | 96° |
| 2026-05-07 09:59 | -34.75198 | 134.70019 | 35528 ft | 461 kts | 95° |
| 2026-05-07 10:00 | -34.75722 | 134.77788 | 35530 ft | 461 kts | 95° |
| 2026-05-07 10:00 | -34.76246 | 134.85548 | 35530 ft | 461 kts | 95° |
| 2026-05-07 10:01 | -34.76755 | 134.93326 | 35531 ft | 461 kts | 95° |
| 2026-05-07 10:01 | -34.77251 | 135.01102 | 35535 ft | 461 kts | 96° |
| 2026-05-07 10:02 | -34.77744 | 135.08887 | 35528 ft | 462 kts | 96° |
| 2026-05-07 10:02 | -34.78236 | 135.16686 | 35525 ft | 462 kts | 95° |
| 2026-05-07 10:03 | -34.78723 | 135.24437 | 35525 ft | 463 kts | 96° |
| 2026-05-07 10:03 | -34.79206 | 135.32243 | 35524 ft | 463 kts | 95° |
| 2026-05-07 10:04 | -34.79683 | 135.40051 | 35527 ft | 463 kts | 96° |
| 2026-05-07 10:04 | -34.80151 | 135.47858 | 35521 ft | 463 kts | 95° |
| 2026-05-07 10:05 | -34.80627 | 135.55676 | 35518 ft | 463 kts | 95° |
| 2026-05-07 10:05 | -34.81090 | 135.63501 | 35528 ft | 463 kts | 95° |
| 2026-05-07 10:06 | -34.81547 | 135.71319 | 35529 ft | 463 kts | 95° |
| 2026-05-07 10:06 | -34.81998 | 135.79128 | 35528 ft | 463 kts | 95° |
| 2026-05-07 10:07 | -34.82454 | 135.86955 | 35515 ft | 464 kts | 95° |
| 2026-05-07 10:07 | -34.82903 | 135.94788 | 35515 ft | 464 kts | 95° |
| 2026-05-07 10:08 | -34.83060 | 136.02643 | 35509 ft | 466 kts | 86° |
| 2026-05-07 10:08 | -34.82643 | 136.10466 | 35504 ft | 467 kts | 87° |
| 2026-05-07 10:09 | -34.82217 | 136.18354 | 35510 ft | 467 kts | 87° |
| 2026-05-07 10:09 | -34.81793 | 136.26243 | 35509 ft | 468 kts | 87° |
| 2026-05-07 10:10 | -34.81359 | 136.34154 | 35508 ft | 468 kts | 87° |
| 2026-05-07 10:10 | -34.80911 | 136.42068 | 35507 ft | 469 kts | 87° |
| 2026-05-07 10:11 | -34.80468 | 136.49983 | 35508 ft | 469 kts | 86° |
| 2026-05-07 10:11 | -34.80021 | 136.57907 | 35506 ft | 469 kts | 87° |
| 2026-05-07 10:12 | -34.79561 | 136.65831 | 35502 ft | 470 kts | 87° |
| 2026-05-07 10:12 | -34.79105 | 136.73766 | 35503 ft | 471 kts | 86° |
| 2026-05-07 10:13 | -34.78635 | 136.81662 | 35512 ft | 471 kts | 86° |
| 2026-05-07 10:13 | -34.78156 | 136.89610 | 35507 ft | 471 kts | 86° |
| 2026-05-07 10:13 | -34.77919 | 136.93579 | 35313 ft | 472 kts | 86° |
| 2026-05-07 10:14 | -34.77681 | 136.97556 | 35085 ft | 470 kts | 86° |
| 2026-05-07 10:14 | -34.77439 | 137.01521 | 34845 ft | 470 kts | 86° |
| 2026-05-07 10:14 | -34.77196 | 137.05481 | 34606 ft | 469 kts | 86° |
| 2026-05-07 10:14 | -34.77031 | 137.08150 | 34435 ft | 468 kts | 86° |
| 2026-05-07 10:15 | -34.76786 | 137.12104 | 34162 ft | 469 kts | 86° |
| 2026-05-07 10:15 | -34.76538 | 137.16063 | 33879 ft | 470 kts | 86° |
| 2026-05-07 10:15 | -34.76288 | 137.20031 | 33608 ft | 470 kts | 86° |
| 2026-05-07 10:15 | -34.76040 | 137.23993 | 33335 ft | 471 kts | 86° |
| 2026-05-07 10:16 | -34.75791 | 137.27968 | 32707 ft | 474 kts | 86° |
| 2026-05-07 10:16 | -34.75539 | 137.31996 | 31753 ft | 480 kts | 86° |
| 2026-05-07 10:16 | -34.75285 | 137.36076 | 30787 ft | 486 kts | 86° |
| 2026-05-07 10:16 | -34.75029 | 137.40127 | 29883 ft | 488 kts | 87° |
| 2026-05-07 10:17 | -34.74763 | 137.44269 | 28726 ft | 494 kts | 86° |
| 2026-05-07 10:17 | -34.74495 | 137.48417 | 27875 ft | 492 kts | 87° |
| 2026-05-07 10:17 | -34.74223 | 137.52572 | 26818 ft | 495 kts | 87° |
| 2026-05-07 10:17 | -34.73945 | 137.56761 | 25750 ft | 498 kts | 87° |
| 2026-05-07 10:18 | -34.73689 | 137.60969 | 24747 ft | 500 kts | 90° |
| 2026-05-07 10:18 | -34.73816 | 137.65169 | 23931 ft | 494 kts | 98° |
| 2026-05-07 10:18 | -34.74443 | 137.69237 | 23054 ft | 486 kts | 107° |
| 2026-05-07 10:18 | -34.75404 | 137.73151 | 22209 ft | 480 kts | 109° |
| 2026-05-07 10:19 | -34.76360 | 137.77007 | 21399 ft | 474 kts | 109° |
| 2026-05-07 10:19 | -34.77295 | 137.80807 | 20373 ft | 465 kts | 109° |
| 2026-05-07 10:19 | -34.78213 | 137.84548 | 19334 ft | 458 kts | 109° |
| 2026-05-07 10:19 | -34.79113 | 137.88228 | 18266 ft | 451 kts | 109° |
| 2026-05-07 10:20 | -34.79998 | 137.91859 | 17193 ft | 443 kts | 109° |
| 2026-05-07 10:20 | -34.80869 | 137.95417 | 16170 ft | 434 kts | 109° |
| 2026-05-07 10:20 | -34.81724 | 137.98898 | 15198 ft | 426 kts | 109° |
| 2026-05-07 10:20 | -34.82565 | 138.02329 | 14310 ft | 418 kts | 109° |
| 2026-05-07 10:21 | -34.83384 | 138.05682 | 13474 ft | 409 kts | 109° |
| 2026-05-07 10:21 | -34.84177 | 138.08942 | 12801 ft | 395 kts | 109° |
| 2026-05-07 10:21 | -34.84802 | 138.12120 | 11939 ft | 391 kts | 102° |
| 2026-05-07 10:21 | -34.84947 | 138.15416 | 11233 ft | 386 kts | 90° |
| 2026-05-07 10:22 | -34.84630 | 138.18584 | 11101 ft | 369 kts | 84° |
| 2026-05-07 10:22 | -34.84229 | 138.21602 | 10976 ft | 354 kts | 84° |
| 2026-05-07 10:22 | -34.83853 | 138.24498 | 10854 ft | 340 kts | 85° |
| 2026-05-07 10:22 | -34.83494 | 138.27297 | 10729 ft | 329 kts | 85° |
| 2026-05-07 10:23 | -34.83146 | 138.30005 | 10621 ft | 318 kts | 85° |
| 2026-05-07 10:23 | -34.82807 | 138.32624 | 10491 ft | 309 kts | 85° |
| 2026-05-07 10:23 | -34.82477 | 138.35168 | 10367 ft | 300 kts | 85° |
| 2026-05-07 10:23 | -34.82154 | 138.37655 | 10191 ft | 294 kts | 85° |
| 2026-05-07 10:24 | -34.81836 | 138.40106 | 10114 ft | 293 kts | 85° |
| 2026-05-07 10:24 | -34.81520 | 138.42552 | 10008 ft | 292 kts | 85° |
| 2026-05-07 10:24 | -34.81202 | 138.45018 | 9573 ft | 298 kts | 85° |
| 2026-05-07 10:24 | -34.80877 | 138.47496 | 9340 ft | 294 kts | 85° |
| 2026-05-07 10:25 | -34.80552 | 138.49947 | 9010 ft | 293 kts | 85° |
| 2026-05-07 10:25 | -34.80227 | 138.52385 | 8607 ft | 291 kts | 85° |
| 2026-05-07 10:25 | -34.79897 | 138.54804 | 8174 ft | 290 kts | 83° |
| 2026-05-07 10:25 | -34.79277 | 138.57132 | 7646 ft | 291 kts | 68° |
| 2026-05-07 10:26 | -34.78233 | 138.59245 | 7100 ft | 292 kts | 60° |
| 2026-05-07 10:26 | -34.77128 | 138.61300 | 6531 ft | 289 kts | 60° |
| 2026-05-07 10:26 | -34.76032 | 138.63342 | 5974 ft | 287 kts | 59° |
| 2026-05-07 10:26 | -34.74969 | 138.65326 | 5655 ft | 276 kts | 60° |
| 2026-05-07 10:27 | -34.74113 | 138.67323 | 5371 ft | 259 kts | 80° |
| 2026-05-07 10:27 | -34.74011 | 138.69382 | 5291 ft | 237 kts | 105° |
| 2026-05-07 10:27 | -34.74551 | 138.71244 | 4812 ft | 234 kts | 128° |
| 2026-05-07 10:27 | -34.75657 | 138.72655 | 4265 ft | 228 kts | 146° |
| 2026-05-07 10:28 | -34.76874 | 138.73819 | 4032 ft | 216 kts | 151° |
| 2026-05-07 10:28 | -34.78213 | 138.74447 | 3903 ft | 203 kts | 176° |
| 2026-05-07 10:28 | -34.79600 | 138.74317 | 3823 ft | 201 kts | 199° |
| 2026-05-07 10:28 | -34.80806 | 138.73494 | 3818 ft | 201 kts | 221° |
| 2026-05-07 10:29 | -34.81736 | 138.72214 | 3760 ft | 203 kts | 228° |
| 2026-05-07 10:29 | -34.82639 | 138.70902 | 3547 ft | 202 kts | 228° |
| 2026-05-07 10:29 | -34.83540 | 138.69596 | 3280 ft | 201 kts | 228° |
| 2026-05-07 10:30 | -34.85324 | 138.67011 | 2737 ft | 194 kts | 228° |
| 2026-05-07 10:30 | -34.86173 | 138.65780 | 2473 ft | 186 kts | 228° |
| 2026-05-07 10:30 | -34.86980 | 138.64610 | 2246 ft | 175 kts | 227° |
| 2026-05-07 10:30 | -34.87755 | 138.63487 | 1989 ft | 172 kts | 227° |
| 2026-05-07 10:31 | -34.88520 | 138.62378 | 1755 ft | 169 kts | 228° |
| 2026-05-07 10:31 | -34.89270 | 138.61289 | 1519 ft | 167 kts | 228° |
| 2026-05-07 10:31 | -34.90014 | 138.60210 | 1303 ft | 167 kts | 228° |
| 2026-05-07 10:31 | -34.90765 | 138.59119 | 1062 ft | 168 kts | 227° |
| 2026-05-07 10:32 | -34.91521 | 138.58023 | 834 ft | 170 kts | 227° |
| 2026-05-07 10:32 | -34.92277 | 138.56926 | 623 ft | 167 kts | 228° |
| 2026-05-07 10:32 | -34.92982 | 138.55895 | 403 ft | 153 kts | 227° |
| 2026-05-07 10:32 | -34.93647 | 138.54927 | 206 ft | 142 kts | 228° |
| 2026-05-07 10:33 | -34.94270 | 138.54026 | 29 ft | 134 kts | 228° |
| 2026-05-07 10:33 | -34.94782 | 138.53280 | 25 ft | 91 kts | 230° |
| 2026-05-07 10:33 | -34.95093 | 138.52827 | 21 ft | 60 kts | 230° |
| 2026-05-07 10:33 | -34.95333 | 138.52480 | 21 ft | 47 kts | 230° |
| 2026-05-07 10:34 | -34.95438 | 138.52298 | 22 ft | 16 kts | 265° |
| 2026-05-07 10:34 | -34.95377 | 138.52205 | 20 ft | 10 kts | 331° |
| 2026-05-07 10:34 | -34.95304 | 138.52200 | 20 ft | 12 kts | 19° |
| 2026-05-07 10:34 | -34.95229 | 138.52265 | 20 ft | 15 kts | 39° |
| 2026-05-07 10:35 | -34.95143 | 138.52350 | 19 ft | 17 kts | 39° |
| 2026-05-07 10:35 | -34.95048 | 138.52439 | 22 ft | 17 kts | 37° |
| 2026-05-07 10:35 | -34.94945 | 138.52533 | 21 ft | 20 kts | 36° |
| 2026-05-07 10:35 | -34.94828 | 138.52643 | 20 ft | 22 kts | 38° |
| 2026-05-07 10:36 | -34.94698 | 138.52766 | 21 ft | 25 kts | 38° |
| 2026-05-07 10:36 | -34.94561 | 138.52896 | 25 ft | 20 kts | 38° |
| 2026-05-07 10:36 | -34.94472 | 138.52977 | 24 ft | 15 kts | 39° |
| 2026-05-07 10:36 | -34.94442 | 138.53074 | 23 ft | 13 kts | 97° |
| 2026-05-07 10:37 | -34.94481 | 138.53162 | 26 ft | 11 kts | 124° |
| 2026-05-07 10:37 | -34.94515 | 138.53235 | 23 ft | 11 kts | 108° |
| 2026-05-07 10:37 | -34.94505 | 138.53342 | 25 ft | 14 kts | 60° |
| 2026-05-07 10:37 | -34.94447 | 138.53429 | 24 ft | 14 kts | 50° |
| 2026-05-07 10:38 | -34.94378 | 138.53530 | 22 ft | 17 kts | 50° |
| 2026-05-07 10:38 | -34.94299 | 138.53645 | 25 ft | 19 kts | 50° |
| 2026-05-07 10:38 | -34.94211 | 138.53773 | 25 ft | 21 kts | 50° |
| 2026-05-07 10:38 | -34.94137 | 138.53881 | 25 ft | 11 kts | 50° |
| 2026-05-07 10:39 | -34.94080 | 138.53906 | 26 ft | 10 kts | 336° |
| 2026-05-07 10:39 | -34.94018 | 138.53890 | 27 ft | 9 kts | 25° |
| 2026-05-07 10:39 | -34.94005 | 138.53904 | 27 ft | 0 kts | 46° |
| 2026-05-07 10:39 | -34.94003 | 138.53904 | 25 ft | 0 kts | 33° |
| 2026-05-07 10:40 | -34.93999 | 138.53900 | 27 ft | 1 kts | 338° |
| 2026-05-07 10:40 | -34.94002 | 138.53892 | 31 ft | 1 kts | 249° |
| 2026-05-07 10:40 | -34.94026 | 138.53867 | 29 ft | 7 kts | 221° |
| 2026-05-07 10:40 | -34.94021 | 138.53818 | 26 ft | 6 kts | 314° |
| 2026-05-07 10:41 | -34.94011 | 138.53808 | 27 ft | 2 kts | 318° |
| 2026-05-07 10:41 | -34.94000 | 138.53796 | 27 ft | 3 kts | 320° |
| 2026-05-07 10:41 | -34.93979 | 138.53775 | 27 ft | 3 kts | 320° |
| 2026-05-07 10:41 | -34.93977 | 138.53773 | 27 ft | 0 kts | 320° |